createdAt,value
2023-03-25T00:01:29.833Z,99425.59
2023-03-25T00:03:58.740Z,99436.44
2023-03-25T00:06:34.488Z,99435.97
2023-03-25T00:09:11.443Z,99432.63
2023-03-25T00:11:43.466Z,99401.75
2023-03-25T00:14:17.707Z,99440.28
2023-03-25T00:16:49.511Z,99430.38
2023-03-25T00:19:21.578Z,99437.59
2023-03-25T00:21:52.130Z,99434.03
2023-03-25T00:24:22.285Z,99436.50
2023-03-25T00:26:54.220Z,99405.72
2023-03-25T00:29:35.836Z,99438.97
2023-03-25T00:32:07.108Z,99411.34
2023-03-25T00:34:41.722Z,99422.00
2023-03-25T00:37:10.251Z,99443.69
2023-03-25T00:39:39.332Z,99444.97
2023-03-25T00:42:11.144Z,99429.28
2023-03-25T00:44:41.452Z,99441.44
2023-03-25T00:47:20.437Z,99432.09
2023-03-25T00:49:52.066Z,99436.97
2023-03-25T00:52:25.896Z,99438.13
2023-03-25T00:54:54.167Z,99416.66
2023-03-25T00:57:24.875Z,99433.28
2023-03-25T00:59:53.307Z,99446.28
2023-03-25T01:02:27.024Z,99440.38
2023-03-25T01:05:02.534Z,99414.31
2023-03-25T01:07:34.345Z,99423.75
2023-03-25T01:10:07.260Z,99440.13
2023-03-25T01:12:39.996Z,99447.09
2023-03-25T01:15:19.854Z,99434.50
2023-03-25T01:17:58.968Z,99397.38
2023-03-25T01:20:31.426Z,99427.88
2023-03-25T01:23:00.278Z,99423.06
2023-03-25T01:25:28.292Z,99427.19
2023-03-25T01:27:59.924Z,99426.75
2023-03-25T01:30:28.651Z,99422.00
2023-03-25T01:32:57.199Z,99363.34
2023-03-25T01:35:25.564Z,99415.44
2023-03-25T01:37:54.945Z,99422.13
2023-03-25T01:40:31.215Z,99416.34
2023-03-25T01:43:04.438Z,99410.94
2023-03-25T01:45:43.563Z,99393.13
2023-03-25T01:48:18.686Z,99420.38
2023-03-25T01:50:54.157Z,99402.13
2023-03-25T01:53:22.607Z,99412.22
2023-03-25T01:55:53.810Z,99407.16
2023-03-25T01:58:27.224Z,99403.50
2023-03-25T02:00:58.212Z,99398.09
2023-03-25T02:03:27.996Z,99408.59
2023-03-25T02:06:04.881Z,99401.66
2023-03-25T02:08:37.875Z,99389.88
2023-03-25T02:11:10.591Z,99392.47
2023-03-25T02:13:43.321Z,99387.75
2023-03-25T02:16:28.825Z,99388.78
2023-03-25T02:19:19.953Z,99379.72
2023-03-25T02:22:25.696Z,99369.03
2023-03-25T02:25:22.403Z,99348.75
2023-03-25T02:28:05.041Z,99384.31
2023-03-25T02:30:59.101Z,99385.16
2023-03-25T02:33:44.301Z,99380.31
2023-03-25T02:37:03.543Z,99375.84
2023-03-25T02:39:39.877Z,99378.06
2023-03-25T02:42:18.340Z,99372.66
2023-03-25T02:44:55.202Z,99370.91
2023-03-25T02:47:25.838Z,99359.13
2023-03-25T02:49:59.529Z,99366.53
2023-03-25T02:52:33.010Z,99354.53
2023-03-25T02:55:05.243Z,99366.53
2023-03-25T02:57:40.561Z,99368.28
2023-03-25T03:00:15.546Z,99366.66
2023-03-25T03:02:46.644Z,99365.09
2023-03-25T03:05:28.591Z,99317.19
2023-03-25T03:08:23.288Z,99353.81
2023-03-25T03:11:03.653Z,99336.97
2023-03-25T03:13:47.993Z,99376.19
2023-03-25T03:16:27.404Z,99358.88
2023-03-25T03:19:03.665Z,99327.22
2023-03-25T03:21:44.388Z,99369.72
2023-03-25T03:24:22.928Z,99369.59
2023-03-25T03:26:58.777Z,99365.22
2023-03-25T03:29:44.041Z,99342.16
2023-03-25T03:32:18.726Z,99379.72
2023-03-25T03:34:51.742Z,99380.06
2023-03-25T03:37:27.573Z,99377.50
2023-03-25T03:39:58.959Z,99350.25
2023-03-25T03:42:33.400Z,99375.47
2023-03-25T03:45:07.276Z,99380.44
2023-03-25T03:47:41.426Z,99357.22
2023-03-25T03:50:19.086Z,99368.66
2023-03-25T03:53:00.649Z,99381.59
2023-03-25T03:55:40.177Z,99391.63
2023-03-25T03:58:17.957Z,99396.94
2023-03-25T04:00:54.548Z,99366.28
2023-03-25T04:03:29.076Z,99314.66
2023-03-25T04:06:06.957Z,99381.81
2023-03-25T04:08:43.000Z,99396.66
2023-03-25T04:11:17.668Z,99386.19
2023-03-25T04:13:51.747Z,99395.72
2023-03-25T04:16:21.307Z,99399.22
2023-03-25T04:18:55.062Z,99357.50
2023-03-25T04:21:26.415Z,99397.56
2023-03-25T04:23:54.336Z,99356.31
2023-03-25T04:26:23.934Z,99392.47
2023-03-25T04:28:54.053Z,99401.41
2023-03-25T04:31:22.207Z,99354.16
2023-03-25T04:33:53.264Z,99404.84
2023-03-25T04:36:22.746Z,99411.84
2023-03-25T04:38:53.199Z,99403.63
2023-03-25T04:41:23.359Z,99415.13
2023-03-25T04:43:51.676Z,99424.78
2023-03-25T04:46:24.861Z,99381.66
2023-03-25T04:48:57.247Z,99424.06
2023-03-25T04:51:25.637Z,99415.88
2023-03-25T04:53:55.265Z,99424.56
2023-03-25T04:56:23.481Z,99433.53
2023-03-25T04:58:53.899Z,99418.00
2023-03-25T05:01:31.204Z,99416.09
2023-03-25T05:04:06.294Z,99424.25
2023-03-25T05:06:35.783Z,99406.34
2023-03-25T05:09:08.625Z,99406.19
2023-03-25T05:11:39.781Z,99414.13
2023-03-25T05:14:11.418Z,99419.19
2023-03-25T05:16:42.738Z,99409.97
2023-03-25T05:19:13.306Z,99409.06
2023-03-25T05:21:44.585Z,99357.91
2023-03-25T05:24:14.821Z,99403.13
2023-03-25T05:26:45.266Z,99411.28
2023-03-25T05:29:24.454Z,99416.47
2023-03-25T05:31:57.089Z,99422.47
2023-03-25T05:34:25.725Z,99433.09
2023-03-25T05:36:56.705Z,99428.56
2023-03-25T05:39:26.213Z,99437.53
2023-03-25T05:41:55.788Z,99414.28
2023-03-25T05:44:27.106Z,99439.09
2023-03-25T05:47:01.173Z,99440.19
2023-03-25T05:49:32.060Z,99439.81
2023-03-25T05:52:01.931Z,99443.56
2023-03-25T05:54:34.632Z,99453.94
2023-03-25T05:57:03.138Z,99424.69
2023-03-25T05:59:31.891Z,99458.63
2023-03-25T06:02:02.117Z,99443.72
2023-03-25T06:04:33.805Z,99445.03
2023-03-25T06:07:03.953Z,99453.94
2023-03-25T06:09:35.410Z,99468.69
2023-03-25T06:12:07.218Z,99437.75
2023-03-25T06:14:36.282Z,99471.84
2023-03-25T06:17:08.657Z,99476.22
2023-03-25T06:19:39.121Z,99466.16
2023-03-25T06:22:09.433Z,99470.81
2023-03-25T06:24:39.059Z,99444.38
2023-03-25T06:27:13.470Z,99476.94
2023-03-25T06:29:43.499Z,99460.97
2023-03-25T06:32:19.593Z,99461.47
2023-03-25T06:34:50.162Z,99472.44
2023-03-25T06:37:21.880Z,99469.00
2023-03-25T06:39:51.573Z,99449.34
2023-03-25T06:42:19.900Z,99470.34
2023-03-25T06:44:47.931Z,99480.81
2023-03-25T06:47:20.543Z,99481.94
2023-03-25T06:49:49.802Z,99466.09
2023-03-25T06:52:17.841Z,99479.09
2023-03-25T06:54:46.362Z,99469.78
2023-03-25T06:57:15.798Z,99485.84
2023-03-25T06:59:45.651Z,99494.19
2023-03-25T07:02:15.214Z,99443.00
2023-03-25T07:04:46.245Z,99486.66
2023-03-25T07:07:14.677Z,99488.53
2023-03-25T07:09:42.546Z,99500.31
2023-03-25T07:12:11.356Z,99481.53
2023-03-25T07:14:43.129Z,99478.38
2023-03-25T07:17:15.251Z,99476.53
2023-03-25T07:19:45.436Z,99476.19
2023-03-25T07:22:14.755Z,99473.44
2023-03-25T07:24:44.128Z,99472.78
2023-03-25T07:27:12.967Z,99464.03
2023-03-25T07:29:44.390Z,99450.16
2023-03-25T07:32:13.208Z,99462.59
2023-03-25T07:34:43.282Z,99474.97
2023-03-25T07:37:16.285Z,99449.13
2023-03-25T07:39:47.437Z,99450.47
2023-03-25T07:42:17.767Z,99472.31
2023-03-25T07:44:46.305Z,99472.53
2023-03-25T07:47:14.585Z,99459.78
2023-03-25T07:49:42.869Z,99475.66
2023-03-25T07:52:19.830Z,99472.59
2023-03-25T07:54:48.540Z,99465.59
2023-03-25T07:57:18.711Z,99469.28
2023-03-25T07:59:48.916Z,99458.13
2023-03-25T08:02:17.364Z,99465.41
2023-03-25T08:04:48.564Z,99467.13
2023-03-25T08:07:18.495Z,99441.34
2023-03-25T08:09:49.501Z,99470.66
2023-03-25T08:12:17.501Z,99422.59
2023-03-25T08:14:48.061Z,99408.03
2023-03-25T08:17:16.441Z,99462.25
2023-03-25T08:19:44.891Z,99440.66
2023-03-25T08:22:13.165Z,99436.19
2023-03-25T08:24:45.365Z,99473.13
2023-03-25T08:27:16.763Z,99456.97
2023-03-25T08:29:47.511Z,99473.00
2023-03-25T08:32:19.090Z,99467.75
2023-03-25T08:34:51.544Z,99473.53
2023-03-25T08:37:22.484Z,99473.94
2023-03-25T08:39:55.980Z,99470.66
2023-03-25T08:42:24.758Z,99464.63
2023-03-25T08:44:53.181Z,99471.06
2023-03-25T08:47:25.063Z,99462.91
2023-03-25T08:49:55.324Z,99446.16
2023-03-25T08:52:27.962Z,99430.13
2023-03-25T08:54:58.519Z,99457.34
2023-03-25T08:57:28.321Z,99445.59
2023-03-25T08:59:56.528Z,99445.13
2023-03-25T09:02:27.342Z,99442.06
2023-03-25T09:04:57.619Z,99442.41
2023-03-25T09:07:28.332Z,99388.78
2023-03-25T09:10:18.141Z,99420.69
2023-03-25T09:12:47.481Z,99427.25
2023-03-25T09:15:17.558Z,99431.19
2023-03-25T09:17:54.339Z,99411.75
2023-03-25T09:20:24.882Z,99405.88
2023-03-25T09:22:57.154Z,99404.00
2023-03-25T09:25:27.477Z,99417.34
2023-03-25T09:28:07.501Z,99399.94
2023-03-25T09:30:39.506Z,99375.69
2023-03-25T09:33:19.382Z,99377.47
2023-03-25T09:35:54.410Z,99420.50
2023-03-25T09:38:23.942Z,99372.44
2023-03-25T09:41:01.670Z,99405.72
2023-03-25T09:43:54.875Z,99400.69
2023-03-25T09:46:26.261Z,99378.84
2023-03-25T09:49:00.802Z,99392.22
2023-03-25T09:51:35.244Z,99448.97
2023-03-25T09:54:17.583Z,99555.97
2023-03-25T09:57:09.012Z,99588.00
2023-03-25T09:59:47.625Z,99562.22
2023-03-25T10:02:29.483Z,99558.69
2023-03-25T10:05:30.851Z,99457.00
2023-03-25T10:08:09.844Z,99478.84
2023-03-25T10:21:59.414Z,99512.44
2023-03-25T10:24:46.457Z,99507.84
2023-03-25T10:27:24.527Z,99497.72
2023-03-25T10:30:04.977Z,99494.34
2023-03-25T10:32:41.704Z,99489.75
2023-03-25T10:35:20.350Z,99475.19
2023-03-25T10:37:53.725Z,99490.19
2023-03-25T10:40:31.201Z,99474.53
2023-03-25T10:43:13.138Z,99420.69
2023-03-25T10:45:45.183Z,99484.63
2023-03-25T10:48:17.920Z,99505.50
2023-03-25T10:50:49.228Z,99470.47
2023-03-25T10:53:24.401Z,99499.91
2023-03-25T10:55:59.711Z,99416.03
2023-03-25T10:58:28.720Z,99459.31
2023-03-25T11:00:57.074Z,99504.03
2023-03-25T11:03:41.285Z,99501.88
2023-03-25T11:06:41.194Z,99493.34
2023-03-25T11:09:25.753Z,99497.06
2023-03-25T11:11:55.284Z,99512.91
2023-03-25T11:14:27.441Z,99471.31
2023-03-25T11:16:59.026Z,99492.56
2023-03-25T11:19:32.441Z,99493.69
2023-03-25T11:22:04.507Z,99495.41
2023-03-25T11:24:41.849Z,99493.34
2023-03-25T11:27:12.015Z,99505.38
2023-03-25T11:29:41.927Z,99496.41
2023-03-25T11:32:16.697Z,99467.25
2023-03-25T11:34:52.002Z,99459.47
2023-03-25T11:37:31.131Z,99483.09
2023-03-25T11:40:15.171Z,99461.09
2023-03-25T11:42:50.023Z,99448.56
2023-03-25T11:45:24.990Z,99466.81
2023-03-25T11:47:55.521Z,99469.72
2023-03-25T11:50:27.384Z,99425.50
2023-03-25T11:52:59.058Z,99469.63
2023-03-25T11:55:33.114Z,99455.69
2023-03-25T11:58:09.300Z,99458.63
2023-03-25T12:00:44.901Z,99479.41
2023-03-25T12:03:21.773Z,99462.34
2023-03-25T12:06:20.374Z,99458.06
2023-03-25T12:08:56.083Z,99460.31
2023-03-25T12:11:37.560Z,99436.56
2023-03-25T12:14:27.657Z,99393.25
2023-03-25T12:17:12.271Z,99429.41
2023-03-25T12:19:58.200Z,99391.81
2023-03-25T12:22:39.391Z,99410.09
2023-03-25T12:25:28.670Z,99371.72
2023-03-25T12:28:27.462Z,99406.03
2023-03-25T12:31:05.407Z,99401.44
2023-03-25T12:33:48.193Z,99385.69
2023-03-25T12:36:38.825Z,99401.53
2023-03-25T12:39:35.633Z,99381.56
2023-03-25T12:42:21.843Z,99413.59
2023-03-25T12:45:05.765Z,99372.53
2023-03-25T12:47:39.603Z,99369.03
2023-03-25T12:50:28.906Z,99403.72
2023-03-25T12:53:10.347Z,99376.66
2023-03-25T12:55:55.561Z,99366.31
2023-03-25T12:58:48.187Z,99392.16
2023-03-25T13:01:36.295Z,99367.03
2023-03-25T13:04:22.373Z,99355.53
2023-03-25T13:07:02.616Z,99369.41
2023-03-25T13:09:44.477Z,99382.06
2023-03-25T13:12:20.765Z,99381.19
2023-03-25T13:14:55.567Z,99373.34
2023-03-25T13:17:31.059Z,99390.72
2023-03-25T13:20:04.548Z,99368.22
2023-03-25T13:22:37.240Z,99388.88
2023-03-25T13:25:10.869Z,99379.88
2023-03-25T13:27:43.697Z,99404.53
2023-03-25T13:30:28.548Z,99397.56
2023-03-25T13:33:08.316Z,99370.34
2023-03-25T13:35:45.310Z,99396.59
2023-03-25T13:38:22.854Z,99404.22
2023-03-25T13:41:10.605Z,99404.22
2023-03-25T13:47:32.936Z,99391.69
2023-03-25T13:50:53.491Z,99401.38
2023-03-25T14:01:04.016Z,99394.09
2023-03-25T14:04:32.866Z,99397.34
2023-03-25T14:07:41.703Z,99395.88
2023-03-25T14:22:31.843Z,99405.63
2023-03-25T14:25:06.220Z,99390.16
2023-03-25T14:27:37.993Z,99402.47
2023-03-25T14:30:20.495Z,99415.78
2023-03-25T14:32:48.737Z,99359.72
2023-03-25T14:35:59.941Z,99385.22
2023-03-25T14:39:00.679Z,99395.34
2023-03-25T14:42:06.077Z,99396.03
2023-03-25T14:44:43.336Z,99344.00
2023-03-25T14:47:32.543Z,99336.19
2023-03-25T14:50:08.618Z,99388.63
2023-03-25T14:52:41.763Z,99388.84
2023-03-25T14:55:16.439Z,99366.28
2023-03-25T14:57:48.195Z,99384.16
2023-03-25T15:00:29.474Z,99366.28
2023-03-25T15:03:04.118Z,99371.03
2023-03-25T15:05:35.390Z,99321.56
2023-03-25T15:08:16.649Z,99371.00
2023-03-25T15:10:50.997Z,99329.06
2023-03-25T15:13:23.783Z,99370.91
2023-03-25T15:16:02.865Z,99326.66
2023-03-25T15:19:11.344Z,99346.13
2023-03-25T15:22:22.128Z,99369.16
2023-03-25T15:25:00.754Z,99350.00
2023-03-25T15:27:46.556Z,99362.81
2023-03-25T15:30:48.556Z,99370.94
2023-03-25T15:33:31.104Z,99350.00
2023-03-25T15:36:16.034Z,99301.50
2023-03-25T15:39:02.055Z,99362.84
2023-03-25T15:41:57.393Z,99335.28
2023-03-25T15:45:05.211Z,99345.84
2023-03-25T15:47:51.626Z,99362.72
2023-03-25T15:50:36.741Z,99342.50
2023-03-25T15:53:42.777Z,99363.81
2023-03-25T15:56:14.761Z,99344.44
2023-03-25T15:58:53.949Z,99313.00
2023-03-25T16:01:31.643Z,99298.72
2023-03-25T16:04:05.774Z,99356.13
2023-03-25T16:06:46.935Z,99339.41
2023-03-25T16:09:28.378Z,99361.25
2023-03-25T16:12:02.132Z,99350.94
2023-03-25T16:14:32.409Z,99365.16
2023-03-25T16:17:06.771Z,99361.31
2023-03-25T16:19:41.920Z,99310.75
2023-03-25T16:22:24.318Z,99319.97
2023-03-25T16:24:53.208Z,99367.31
2023-03-25T16:27:24.909Z,99370.28
2023-03-25T16:29:57.461Z,99378.47
2023-03-25T16:32:33.483Z,99377.56
2023-03-25T16:35:07.545Z,99361.47
2023-03-25T16:37:42.214Z,99368.78
2023-03-25T16:40:21.058Z,99369.81
2023-03-25T16:42:50.944Z,99375.56
2023-03-25T16:45:23.936Z,99341.88
2023-03-25T16:47:58.191Z,99397.25
2023-03-25T16:50:27.233Z,99389.88
2023-03-25T16:53:02.668Z,99366.00
2023-03-25T16:55:33.861Z,99371.63
2023-03-25T16:58:04.164Z,99381.56
2023-03-25T17:00:44.026Z,99371.56
2023-03-25T17:03:20.225Z,99359.00
2023-03-25T17:05:59.728Z,99340.63
2023-03-25T17:08:32.614Z,99392.28
2023-03-25T17:11:04.755Z,99399.09
2023-03-25T17:13:46.047Z,99382.09
2023-03-25T17:16:15.663Z,99400.38
2023-03-25T17:18:45.868Z,99403.34
2023-03-25T17:21:26.649Z,99418.84
2023-03-25T17:23:59.830Z,99400.47
2023-03-25T17:26:34.370Z,99352.75
2023-03-25T17:29:08.156Z,99383.69
2023-03-25T17:31:38.870Z,99416.41
2023-03-25T17:34:13.037Z,99412.31
2023-03-25T17:36:43.635Z,99352.75
2023-03-25T17:39:19.898Z,99437.13
2023-03-25T17:42:00.593Z,99415.50
2023-03-25T17:44:35.476Z,99430.34
2023-03-25T17:47:05.717Z,99383.63
2023-03-25T17:49:37.198Z,99450.47
2023-03-25T17:52:05.211Z,99433.88
2023-03-25T17:54:35.481Z,99391.44
2023-03-25T17:57:15.436Z,99451.78
2023-03-25T17:59:43.472Z,99447.97
2023-03-25T18:02:19.423Z,99408.59
2023-03-25T18:04:47.859Z,99397.66
2023-03-25T18:07:21.440Z,99437.19
2023-03-25T18:09:52.339Z,99446.03
2023-03-25T18:12:21.446Z,99468.25
2023-03-25T18:14:50.003Z,99430.84
2023-03-25T18:17:18.525Z,99423.41
2023-03-25T18:19:46.806Z,99487.16
2023-03-25T18:24:48.001Z,99497.88
2023-03-25T18:27:22.156Z,99486.28
2023-03-25T18:29:53.792Z,99523.47
2023-03-25T18:32:22.604Z,99473.34
2023-03-25T18:34:50.737Z,99494.88
2023-03-25T18:37:21.098Z,99502.03
2023-03-25T18:39:50.540Z,99526.75
2023-03-25T18:42:20.379Z,99446.38
2023-03-25T18:44:52.521Z,99523.53
2023-03-25T18:47:22.272Z,99550.19
2023-03-25T18:49:55.619Z,99557.22
2023-03-25T18:52:26.487Z,99553.56
2023-03-25T18:54:55.446Z,99504.31
2023-03-25T18:57:25.544Z,99481.75
2023-03-25T18:59:54.355Z,99571.34
2023-03-25T19:02:22.769Z,99543.72
2023-03-25T19:05:00.911Z,99549.75
2023-03-25T19:07:30.059Z,99592.09
2023-03-25T19:09:58.046Z,99587.63
2023-03-25T19:12:30.145Z,99544.16
2023-03-25T19:14:58.736Z,99600.50
2023-03-25T19:17:29.274Z,99604.06
2023-03-25T19:19:57.405Z,99566.69
2023-03-25T19:22:25.597Z,99571.03
2023-03-25T19:24:55.197Z,99568.81
2023-03-25T19:27:23.367Z,99619.66
2023-03-25T19:29:54.342Z,99623.91
2023-03-25T19:32:22.397Z,99601.16
2023-03-25T19:34:51.456Z,99634.88
2023-03-25T19:37:24.011Z,99628.28
2023-03-25T19:39:52.246Z,99605.03
2023-03-25T19:42:20.276Z,99635.47
2023-03-25T19:44:50.610Z,99653.06
2023-03-25T19:47:23.305Z,99608.91
2023-03-25T19:49:54.606Z,99638.44
2023-03-25T19:52:23.267Z,99662.97
2023-03-25T19:54:51.188Z,99639.94
2023-03-25T19:57:22.353Z,99615.97
2023-03-25T19:59:51.057Z,99624.00
2023-03-25T20:02:21.296Z,99577.69
2023-03-25T20:04:50.053Z,99648.28
2023-03-25T20:07:20.695Z,99628.31
2023-03-25T20:09:51.300Z,99655.38
2023-03-25T20:12:22.606Z,99652.75
2023-03-25T20:14:52.051Z,99638.34
2023-03-25T20:17:21.639Z,99601.13
2023-03-25T20:19:50.617Z,99624.66
2023-03-25T20:22:24.946Z,99642.88
2023-03-25T20:24:55.450Z,99647.41
2023-03-25T20:27:23.372Z,99577.66
2023-03-25T20:29:51.543Z,99635.53
2023-03-25T20:32:21.597Z,99641.31
2023-03-25T20:34:50.189Z,99644.16
2023-03-25T20:37:18.893Z,99618.88
2023-03-25T20:39:46.917Z,99617.84
2023-03-25T20:42:17.339Z,99583.28
2023-03-25T20:44:49.052Z,99625.03
2023-03-25T20:47:17.206Z,99630.91
2023-03-25T20:49:46.583Z,99617.00
2023-03-25T20:52:17.597Z,99606.97
2023-03-25T20:54:45.487Z,99568.56
2023-03-25T20:57:15.274Z,99625.84
2023-03-25T20:59:44.435Z,99612.25
2023-03-25T21:02:12.556Z,99593.19
2023-03-25T21:04:40.789Z,99616.16
2023-03-25T21:07:11.634Z,99583.66
2023-03-25T21:09:39.819Z,99557.84
2023-03-25T21:12:07.981Z,99515.91
2023-03-25T21:14:38.517Z,99621.97
2023-03-25T21:17:07.009Z,99622.50
2023-03-25T21:19:35.242Z,99634.59
2023-03-25T21:22:05.187Z,99633.97
2023-03-25T21:24:36.140Z,99590.63
2023-03-25T21:27:05.889Z,99620.44
2023-03-25T21:29:34.872Z,99615.25
2023-03-25T21:32:03.663Z,99620.84
2023-03-25T21:34:33.005Z,99657.19
2023-03-25T21:37:05.532Z,99615.75
2023-03-25T21:39:35.912Z,99583.50
2023-03-25T21:42:09.903Z,99652.34
2023-03-25T21:44:43.714Z,99649.06
2023-03-25T21:47:11.948Z,99626.69
2023-03-25T21:49:43.381Z,99633.50
2023-03-25T21:52:13.906Z,99614.03
2023-03-25T21:54:44.420Z,99603.69
2023-03-25T21:57:14.808Z,99652.34
2023-03-25T21:59:43.838Z,99659.09
2023-03-25T22:02:14.873Z,99645.88
2023-03-25T22:04:42.656Z,99646.22
2023-03-25T22:07:11.480Z,99641.84
2023-03-25T22:09:41.488Z,99597.97
2023-03-25T22:12:13.285Z,99617.50
2023-03-25T22:14:46.621Z,99650.31
2023-03-25T22:17:14.897Z,99658.59
2023-03-25T22:19:42.994Z,99618.94
2023-03-25T22:22:18.934Z,99651.84
2023-03-25T22:24:50.757Z,99602.59
2023-03-25T22:27:24.605Z,99668.00
2023-03-25T22:29:54.116Z,99612.66
2023-03-25T22:32:26.978Z,99641.44
2023-03-25T22:34:55.674Z,99649.47
2023-03-25T22:37:24.208Z,99582.31
2023-03-25T22:39:53.077Z,99651.38
2023-03-25T22:42:22.357Z,99622.91
2023-03-25T22:44:50.631Z,99614.16
2023-03-25T22:47:19.889Z,99650.78
2023-03-25T22:49:47.732Z,99647.63
2023-03-25T22:52:15.655Z,99667.16
2023-03-25T22:54:43.645Z,99660.47
2023-03-25T22:57:11.917Z,99657.31
2023-03-25T22:59:41.648Z,99663.28
2023-03-25T23:02:13.175Z,99674.91
2023-03-25T23:04:46.771Z,99669.59
2023-03-25T23:07:15.903Z,99672.81
2023-03-25T23:09:44.158Z,99683.66
2023-03-25T23:12:14.623Z,99676.38
2023-03-25T23:14:49.329Z,99660.91
2023-03-25T23:17:17.864Z,99647.50
2023-03-25T23:19:47.451Z,99643.22
2023-03-25T23:22:16.706Z,99686.69
2023-03-25T23:24:45.128Z,99701.75
2023-03-25T23:27:14.671Z,99662.63
2023-03-25T23:29:58.329Z,99676.38
2023-03-25T23:32:27.979Z,99676.31
2023-03-25T23:35:03.174Z,99693.91
2023-03-25T23:37:34.826Z,99691.97
2023-03-25T23:40:04.337Z,99687.75
2023-03-25T23:42:35.452Z,99666.53
2023-03-25T23:45:09.675Z,99672.84
2023-03-25T23:47:38.174Z,99675.13
2023-03-25T23:50:07.134Z,99682.41
2023-03-25T23:52:40.495Z,99688.81
2023-03-25T23:55:12.309Z,99660.13
2023-03-25T23:57:42.432Z,99680.53
